Trabzon — 9HA2783 — position and weather

sailwx.info

Track history (hours):
 
Tides and Currents Weather Stations Pressure Air Temp Water Temp Dewpoint Dewpoint Depression Visibility Wind Speed Wind Dir Waves Ship Positions

Trabzon

Last reported at 2016-Sep-18 14:21 UTC. Time now 2016-Sep-26 12:21 UTC.
Position N 09°60' W 079°34'.

Length 229 m; draft 11.8 m.

Type: Cargo ship. MMSI: 215679000.

Date/timePositionNaut miles runAvg speedWind from/ knotsBaromVisibWave heightAir tempDewpointWater temp
2016-Sep-18 14:21N 09°60' W 079°34'4411.5
2016-Sep-18 10:34N 09°22' W 079°55'0 0.2
2016-Sep-18 09:32N 09°22' W 079°56'0 0.0
2016-Sep-18 02:32N 09°22' W 079°56'0 0.0
2016-Sep-18 01:32N 09°22' W 079°55'0 0.0
2016-Sep-18 00:33N 09°22' W 079°55'0 0.0
2016-Sep-17 22:32N 09°22' W 079°55'0 0.1
2016-Sep-17 21:30N 09°22' W 079°56'2 2.1
2016-Sep-17 20:33N 09°20' W 079°55'3 2.5
2016-Sep-17 19:15N 09°17' W 079°55'24 4.2
2016-Sep-17 13:29N 09°01' W 079°37'1 1.4
2016-Sep-17 12:31N 09°00' W 079°36'2 0.9
2016-Sep-17 10:31N 08°59' W 079°35'6 5.9
2016-Sep-17 09:26N 08°53' W 079°31'2 1.2
2016-Sep-17 07:30N 08°52' W 079°29'0 0.0
2016-Sep-17 05:33N 08°52' W 079°29'0 0.0
2016-Sep-17 04:24N 08°52' W 079°29'0 0.0
2016-Sep-16 15:13N 08°52' W 079°29'0 0.0
2016-Sep-16 12:24N 08°52' W 079°29'0 0.0
2016-Sep-16 07:27N 08°52' W 079°29'0 0.0
2016-Sep-16 03:06N 08°52' W 079°29'0 0.0
2016-Sep-16 00:30N 08°52' W 079°29'0 0.0
2016-Sep-15 21:09N 08°52' W 079°29'0 0.0
2016-Sep-15 20:30N 08°52' W 079°29'0 0.0
2016-Sep-15 04:18N 08°52' W 079°29'0 0.1
2016-Sep-15 03:27N 08°52' W 079°29'7 1.4
2016-Sep-14 22:32N 08°46' W 079°25'  
Track history (hours):
 
Tides and Currents Weather Stations Pressure Air Temp Water Temp Dewpoint Dewpoint Depression Visibility Wind Speed Wind Dir Waves Ship Positions

Trabzon

Last reported at 2016-Sep-18 14:21 UTC. Time now 2016-Sep-26 12:21 UTC.
Position N 09°60' W 079°34'.

Length 229 m; draft 11.8 m.

Type: Cargo ship. MMSI: 215679000.

Date/timePositionNaut miles runAvg speedWind from/ knotsBaromVisibWave heightAir tempDewpointWater temp
2016-Sep-18 14:21N 09°60' W 079°34'4411.5
2016-Sep-18 10:34N 09°22' W 079°55'0 0.2
2016-Sep-18 09:32N 09°22' W 079°56'0 0.0
2016-Sep-18 02:32N 09°22' W 079°56'0 0.0
2016-Sep-18 01:32N 09°22' W 079°55'0 0.0
2016-Sep-18 00:33N 09°22' W 079°55'0 0.0
2016-Sep-17 22:32N 09°22' W 079°55'0 0.1
2016-Sep-17 21:30N 09°22' W 079°56'2 2.1
2016-Sep-17 20:33N 09°20' W 079°55'3 2.5
2016-Sep-17 19:15N 09°17' W 079°55'24 4.2
2016-Sep-17 13:29N 09°01' W 079°37'1 1.4
2016-Sep-17 12:31N 09°00' W 079°36'2 0.9
2016-Sep-17 10:31N 08°59' W 079°35'6 5.9
2016-Sep-17 09:26N 08°53' W 079°31'2 1.2
2016-Sep-17 07:30N 08°52' W 079°29'0 0.0
2016-Sep-17 05:33N 08°52' W 079°29'0 0.0
2016-Sep-17 04:24N 08°52' W 079°29'0 0.0
2016-Sep-16 15:13N 08°52' W 079°29'0 0.0
2016-Sep-16 12:24N 08°52' W 079°29'0 0.0
2016-Sep-16 07:27N 08°52' W 079°29'0 0.0
2016-Sep-16 03:06N 08°52' W 079°29'0 0.0
2016-Sep-16 00:30N 08°52' W 079°29'0 0.0
2016-Sep-15 21:09N 08°52' W 079°29'0 0.0
2016-Sep-15 20:30N 08°52' W 079°29'0 0.0
2016-Sep-15 04:18N 08°52' W 079°29'0 0.1
2016-Sep-15 03:27N 08°52' W 079°29'7 1.4
2016-Sep-14 22:32N 08°46' W 079°25'  

Dump ship's entire track history